createdAt,value
2022-10-30T00:00:59.830Z,28.07
2022-10-30T00:02:32.905Z,27.77
2022-10-30T00:04:06.217Z,28.40
2022-10-30T00:05:41.312Z,27.97
2022-10-30T00:07:14.394Z,28.70
2022-10-30T00:08:47.465Z,28.10
2022-10-30T00:10:19.489Z,26.27
2022-10-30T00:11:52.543Z,25.53
2022-10-30T00:13:25.648Z,26.57
2022-10-30T00:14:58.684Z,26.47
2022-10-30T00:16:33.085Z,26.37
2022-10-30T00:18:05.642Z,26.70
2022-10-30T00:19:38.697Z,24.87
2022-10-30T00:21:13.990Z,25.10
2022-10-30T00:22:47.049Z,24.23
2022-10-30T00:24:20.174Z,23.40
2022-10-30T00:25:53.207Z,24.97
2022-10-30T00:27:25.337Z,25.20
2022-10-30T00:28:58.373Z,24.80
2022-10-30T00:30:31.411Z,25.93
2022-10-30T00:32:05.956Z,25.47
2022-10-30T00:33:39.058Z,25.20
2022-10-30T00:35:12.555Z,25.03
2022-10-30T00:36:45.863Z,23.77
2022-10-30T00:38:18.944Z,24.80
2022-10-30T00:39:51.997Z,25.57
2022-10-30T00:41:26.224Z,24.50
2022-10-30T00:43:01.719Z,26.67
2022-10-30T00:44:38.386Z,26.67
2022-10-30T00:46:19.783Z,25.57
2022-10-30T00:48:01.075Z,26.90
2022-10-30T00:49:36.792Z,25.97
2022-10-30T00:51:12.476Z,25.90
2022-10-30T00:52:49.617Z,24.73
2022-10-30T00:54:23.436Z,25.80
2022-10-30T00:56:00.337Z,26.07
2022-10-30T00:57:33.937Z,26.37
2022-10-30T00:59:08.134Z,26.10
2022-10-30T01:00:45.332Z,26.67
2022-10-30T01:02:20.569Z,27.00
2022-10-30T01:03:58.968Z,27.10
2022-10-30T01:05:32.862Z,27.07
2022-10-30T01:07:11.747Z,26.90
2022-10-30T01:08:46.650Z,25.70
2022-10-30T01:10:20.503Z,26.33
2022-10-30T01:11:53.541Z,26.40
2022-10-30T01:13:27.630Z,26.00
2022-10-30T01:15:01.376Z,27.37
2022-10-30T01:16:58.353Z,27.10
2022-10-30T01:18:44.040Z,27.70
2022-10-30T01:20:34.287Z,26.07
2022-10-30T01:22:22.430Z,24.77
2022-10-30T01:24:13.992Z,25.60
2022-10-30T01:25:57.239Z,25.57
2022-10-30T01:27:39.972Z,25.47
2022-10-30T01:29:29.278Z,24.33
2022-10-30T01:31:14.982Z,22.17
2022-10-30T01:33:01.316Z,22.13
2022-10-30T01:34:44.341Z,22.17
2022-10-30T01:36:25.246Z,21.13
2022-10-30T01:38:03.521Z,21.70
2022-10-30T01:39:38.699Z,21.23
2022-10-30T01:41:11.931Z,21.33
2022-10-30T01:42:51.418Z,21.03
2022-10-30T01:44:32.364Z,22.20
2022-10-30T01:46:28.190Z,23.00
2022-10-30T01:48:20.755Z,22.40
2022-10-30T01:50:10.802Z,22.83
2022-10-30T01:51:57.086Z,23.20
2022-10-30T01:53:47.829Z,24.53
2022-10-30T01:55:35.943Z,25.87
2022-10-30T01:57:13.696Z,25.70
2022-10-30T01:58:56.018Z,26.83
2022-10-30T02:00:30.031Z,26.83
2022-10-30T02:02:02.284Z,27.70
2022-10-30T02:03:35.448Z,28.27
2022-10-30T02:05:10.283Z,28.97
2022-10-30T02:06:43.634Z,28.23
2022-10-30T02:08:19.079Z,28.93
2022-10-30T02:09:52.842Z,29.70
2022-10-30T02:11:27.721Z,28.70
2022-10-30T02:13:01.420Z,29.13
2022-10-30T02:14:41.144Z,28.13
2022-10-30T02:16:14.295Z,28.90
2022-10-30T02:17:47.908Z,29.17
2022-10-30T02:19:22.229Z,28.30
2022-10-30T02:20:56.661Z,29.27
2022-10-30T02:22:29.781Z,28.83
2022-10-30T02:24:02.896Z,30.23
2022-10-30T02:25:36.149Z,30.00
2022-10-30T02:27:09.551Z,29.17
2022-10-30T02:28:43.198Z,30.27
2022-10-30T02:30:17.040Z,29.70
2022-10-30T02:31:49.240Z,28.73
2022-10-30T02:33:24.299Z,27.60
2022-10-30T02:34:57.544Z,27.93
2022-10-30T02:36:32.143Z,27.20
2022-10-30T02:38:05.275Z,27.73
2022-10-30T02:39:38.358Z,25.80
2022-10-30T02:41:11.830Z,24.60
2022-10-30T02:42:45.373Z,26.13
2022-10-30T02:44:20.247Z,24.27
2022-10-30T02:45:55.385Z,24.03
2022-10-30T02:47:30.247Z,22.87
2022-10-30T02:49:03.282Z,24.67
2022-10-30T02:50:36.504Z,22.87
2022-10-30T02:52:11.384Z,24.67
2022-10-30T02:53:48.223Z,25.10
2022-10-30T02:55:21.290Z,23.63
2022-10-30T02:56:54.677Z,24.27
2022-10-30T02:58:28.105Z,23.73
2022-10-30T03:00:01.475Z,24.63
2022-10-30T03:01:35.426Z,24.87
2022-10-30T03:03:07.597Z,24.90
2022-10-30T03:04:41.127Z,25.47
2022-10-30T03:06:16.541Z,24.83
2022-10-30T03:07:51.520Z,24.50
2022-10-30T03:09:24.621Z,24.03
2022-10-30T03:11:02.287Z,24.63
2022-10-30T03:12:35.359Z,23.93
2022-10-30T03:14:08.383Z,24.33
2022-10-30T03:15:41.413Z,24.60
2022-10-30T03:17:14.450Z,24.20
2022-10-30T03:18:48.415Z,25.50
2022-10-30T03:20:21.106Z,22.83
2022-10-30T03:21:55.330Z,23.63
2022-10-30T03:23:30.746Z,22.77
2022-10-30T03:25:03.789Z,23.63
2022-10-30T03:26:36.925Z,23.47
2022-10-30T03:28:12.400Z,23.30
2022-10-30T03:29:45.616Z,23.50
2022-10-30T03:31:20.635Z,23.43
2022-10-30T03:33:02.205Z,23.40
2022-10-30T03:34:35.718Z,22.87
2022-10-30T03:36:13.647Z,21.50
2022-10-30T03:37:47.216Z,22.87
2022-10-30T03:39:21.623Z,23.00
2022-10-30T03:40:55.373Z,23.37
2022-10-30T03:42:28.361Z,22.53
2022-10-30T03:44:01.591Z,21.67
2022-10-30T03:45:33.878Z,22.60
2022-10-30T03:48:51.044Z,24.07
2022-10-30T03:50:24.093Z,23.80
2022-10-30T03:51:57.354Z,24.17
2022-10-30T03:53:32.214Z,24.90
2022-10-30T03:55:07.860Z,24.20
2022-10-30T03:56:45.680Z,23.60
2022-10-30T03:58:21.659Z,23.77
2022-10-30T03:59:53.804Z,24.83
2022-10-30T04:01:47.034Z,23.90
2022-10-30T04:03:20.349Z,24.20
2022-10-30T04:04:53.715Z,24.70
2022-10-30T04:06:27.149Z,22.63
2022-10-30T04:08:04.130Z,23.57
2022-10-30T04:09:41.332Z,22.97
2022-10-30T04:11:15.749Z,21.83
2022-10-30T04:12:48.808Z,21.83
2022-10-30T04:14:21.913Z,21.27
2022-10-30T04:15:58.000Z,21.63
2022-10-30T04:17:32.168Z,22.67
2022-10-30T04:19:09.218Z,21.53
2022-10-30T04:20:41.254Z,20.80
2022-10-30T04:22:14.288Z,20.63
2022-10-30T04:23:47.331Z,21.00
2022-10-30T04:25:20.467Z,21.57
2022-10-30T04:26:57.615Z,21.23
2022-10-30T04:28:31.123Z,20.60
2022-10-30T04:30:03.374Z,22.23
2022-10-30T04:31:37.263Z,22.57
2022-10-30T04:33:13.117Z,23.07
2022-10-30T04:34:46.767Z,23.13
2022-10-30T04:36:21.846Z,23.43
2022-10-30T04:37:54.448Z,24.23
2022-10-30T04:39:27.507Z,23.77
2022-10-30T04:41:07.277Z,25.17
2022-10-30T04:43:08.357Z,24.40
2022-10-30T04:44:41.408Z,24.73
2022-10-30T04:46:15.277Z,23.87
2022-10-30T04:47:47.382Z,24.13
2022-10-30T04:49:20.424Z,24.20
2022-10-30T04:50:54.347Z,23.60
2022-10-30T04:52:30.793Z,23.37
2022-10-30T04:54:04.031Z,24.13
2022-10-30T04:55:38.563Z,23.17
2022-10-30T04:57:11.623Z,22.23
2022-10-30T04:58:48.631Z,22.13
2022-10-30T05:00:21.826Z,22.37
2022-10-30T05:01:55.069Z,21.80
2022-10-30T05:03:28.252Z,22.83
2022-10-30T05:05:01.267Z,22.00
2022-10-30T05:06:34.946Z,20.53
2022-10-30T05:08:09.528Z,20.00
2022-10-30T05:09:42.731Z,19.87
2022-10-30T05:11:15.912Z,20.10
2022-10-30T05:12:48.983Z,21.70
2022-10-30T05:14:22.458Z,20.87
2022-10-30T05:15:56.213Z,21.30
2022-10-30T05:19:04.862Z,21.20
2022-10-30T05:20:39.655Z,21.47
2022-10-30T05:22:12.826Z,21.50
2022-10-30T05:23:46.194Z,23.33
2022-10-30T05:25:19.631Z,24.27
2022-10-30T05:26:52.746Z,25.80
2022-10-30T05:28:25.853Z,26.43
2022-10-30T05:30:04.514Z,27.67
2022-10-30T05:31:37.567Z,27.10
2022-10-30T05:33:23.611Z,26.97
2022-10-30T05:34:57.070Z,27.90
2022-10-30T05:36:30.301Z,27.60
2022-10-30T05:38:05.515Z,26.93
2022-10-30T05:39:37.950Z,25.97
2022-10-30T05:41:17.919Z,26.20
2022-10-30T05:42:51.543Z,24.20
2022-10-30T05:44:40.704Z,24.10
2022-10-30T05:46:18.977Z,24.47
2022-10-30T05:47:57.066Z,23.30
2022-10-30T05:49:30.642Z,23.27
2022-10-30T05:51:06.579Z,23.40
2022-10-30T05:52:39.937Z,23.13
2022-10-30T05:54:14.634Z,23.27
2022-10-30T05:56:01.085Z,22.10
2022-10-30T05:57:37.920Z,22.60
2022-10-30T05:59:11.685Z,22.30
2022-10-30T06:00:45.185Z,22.50
2022-10-30T06:02:24.129Z,22.03
2022-10-30T06:03:57.769Z,22.63
2022-10-30T06:05:32.283Z,22.40
2022-10-30T06:07:07.635Z,23.40
2022-10-30T06:08:41.296Z,22.63
2022-10-30T06:10:36.835Z,23.10
2022-10-30T06:12:29.305Z,21.63
2022-10-30T06:14:09.533Z,21.63
2022-10-30T06:15:51.362Z,22.30
2022-10-30T06:17:26.982Z,21.97
2022-10-30T06:19:26.091Z,21.93
2022-10-30T06:21:03.566Z,21.47
2022-10-30T06:22:56.004Z,21.77
2022-10-30T06:24:31.893Z,21.20
2022-10-30T06:26:12.786Z,21.27
2022-10-30T06:27:57.443Z,21.10
2022-10-30T06:29:31.126Z,21.17
2022-10-30T06:31:04.209Z,20.87
2022-10-30T06:32:39.431Z,21.43
2022-10-30T06:34:12.621Z,20.33
2022-10-30T06:35:49.713Z,20.67
2022-10-30T06:37:24.139Z,20.27
2022-10-30T06:38:57.723Z,20.90
2022-10-30T06:40:33.871Z,19.90
2022-10-30T06:42:33.501Z,19.87
2022-10-30T06:44:15.582Z,19.90
2022-10-30T06:45:48.707Z,20.03
2022-10-30T06:47:21.808Z,19.37
2022-10-30T06:48:55.255Z,18.97
2022-10-30T06:50:28.449Z,19.07
2022-10-30T06:52:01.695Z,18.83
2022-10-30T06:53:34.780Z,19.20
2022-10-30T06:55:43.118Z,19.77
2022-10-30T06:57:43.100Z,18.67
2022-10-30T06:59:48.524Z,18.33
2022-10-30T07:01:40.867Z,19.10
2022-10-30T07:03:25.827Z,19.83
2022-10-30T07:05:01.182Z,19.63
2022-10-30T07:06:34.786Z,17.97
2022-10-30T07:08:07.861Z,18.90
2022-10-30T07:09:40.043Z,19.27
2022-10-30T07:11:13.213Z,18.07
2022-10-30T07:13:10.118Z,18.23
2022-10-30T07:15:06.950Z,18.57
2022-10-30T07:16:58.503Z,18.67
2022-10-30T07:18:33.171Z,17.70
2022-10-30T07:20:09.595Z,17.93
2022-10-30T07:21:42.867Z,17.30
2022-10-30T07:23:16.659Z,17.03
2022-10-30T07:24:49.959Z,17.00
2022-10-30T07:26:41.565Z,17.60
2022-10-30T07:28:36.573Z,16.63
2022-10-30T07:32:34.291Z,16.43
2022-10-30T07:34:26.958Z,18.27
2022-10-30T07:36:30.249Z,17.70
2022-10-30T07:38:17.724Z,17.83
2022-10-30T07:40:02.413Z,18.30
2022-10-30T07:42:01.518Z,19.43
2022-10-30T07:43:49.760Z,19.30
2022-10-30T07:45:47.947Z,18.13
2022-10-30T07:47:41.110Z,18.60
2022-10-30T07:49:25.108Z,19.07
2022-10-30T07:51:05.301Z,19.00
2022-10-30T07:52:39.752Z,18.93
2022-10-30T07:54:14.238Z,19.03
2022-10-30T07:55:47.315Z,19.47
2022-10-30T07:57:20.323Z,19.87
2022-10-30T07:59:11.574Z,18.90
2022-10-30T08:01:03.674Z,19.73
2022-10-30T08:02:39.175Z,19.57
2022-10-30T08:04:22.921Z,19.73
2022-10-30T08:05:56.068Z,20.00
2022-10-30T08:07:36.347Z,19.70
2022-10-30T08:09:11.294Z,20.30
2022-10-30T08:10:44.512Z,19.57
2022-10-30T08:12:17.576Z,19.37
2022-10-30T08:13:51.071Z,19.03
2022-10-30T08:15:24.822Z,18.83
2022-10-30T08:16:57.859Z,18.33
2022-10-30T08:18:30.975Z,18.23
2022-10-30T08:20:04.055Z,18.57
2022-10-30T08:21:37.161Z,18.17
2022-10-30T08:23:14.760Z,17.93
2022-10-30T08:24:49.433Z,18.77
2022-10-30T08:26:22.728Z,18.83
2022-10-30T08:27:58.964Z,18.43
2022-10-30T08:29:34.727Z,18.20
2022-10-30T08:31:08.630Z,18.90
2022-10-30T08:33:06.154Z,21.03
2022-10-30T08:34:57.802Z,18.47
2022-10-30T08:36:31.915Z,18.53
2022-10-30T08:38:05.036Z,19.33
2022-10-30T08:39:38.833Z,18.50
2022-10-30T08:41:30.902Z,19.93
2022-10-30T08:43:04.059Z,19.87
2022-10-30T08:44:38.589Z,19.27
2022-10-30T08:46:30.198Z,18.87
2022-10-30T08:48:05.384Z,18.70
2022-10-30T08:49:43.357Z,18.27
2022-10-30T08:51:17.051Z,19.67
2022-10-30T08:52:53.894Z,18.87
2022-10-30T08:54:28.213Z,19.07
2022-10-30T08:56:01.839Z,18.27
2022-10-30T08:57:46.971Z,16.53
2022-10-30T08:59:21.324Z,19.13
2022-10-30T09:01:01.027Z,18.10
2022-10-30T09:02:53.265Z,17.23
2022-10-30T09:04:46.581Z,17.03
2022-10-30T09:06:54.597Z,17.40
2022-10-30T09:08:44.726Z,17.87
2022-10-30T09:10:30.530Z,17.67
2022-10-30T09:12:03.576Z,17.20
2022-10-30T09:13:43.430Z,16.43
2022-10-30T09:15:17.812Z,15.80
2022-10-30T09:17:00.299Z,17.10
2022-10-30T09:18:33.450Z,15.60
2022-10-30T09:20:07.411Z,16.67
2022-10-30T09:21:42.144Z,16.83
2022-10-30T09:23:15.231Z,16.47
2022-10-30T09:24:51.625Z,16.20
2022-10-30T09:26:52.530Z,17.50
2022-10-30T09:28:32.809Z,16.97
2022-10-30T09:30:39.268Z,16.57
2022-10-30T09:32:12.393Z,17.07
2022-10-30T09:33:57.396Z,16.07
2022-10-30T09:35:47.965Z,16.87
2022-10-30T09:37:21.077Z,16.30
2022-10-30T09:38:58.045Z,15.93
2022-10-30T09:40:45.449Z,15.70
2022-10-30T09:42:44.217Z,16.87
2022-10-30T09:44:28.462Z,16.73
2022-10-30T09:46:19.943Z,16.70
2022-10-30T09:48:04.640Z,17.23
2022-10-30T09:50:08.914Z,17.83
2022-10-30T09:51:56.648Z,17.87
2022-10-30T09:53:38.745Z,17.80
2022-10-30T09:55:30.947Z,18.30
2022-10-30T09:57:09.875Z,19.10
2022-10-30T09:58:58.449Z,18.17
2022-10-30T10:00:37.850Z,17.83
2022-10-30T10:02:31.576Z,17.10
2022-10-30T10:04:22.418Z,17.43
2022-10-30T10:06:20.270Z,17.80
2022-10-30T10:08:18.618Z,17.17
2022-10-30T10:10:16.819Z,16.60
2022-10-30T10:12:03.673Z,16.90
2022-10-30T10:13:40.019Z,16.17
2022-10-30T10:15:20.213Z,16.33
2022-10-30T10:16:54.895Z,15.70
2022-10-30T10:18:34.523Z,16.47
2022-10-30T10:20:17.726Z,16.10
2022-10-30T10:21:58.310Z,16.40
2022-10-30T10:23:37.098Z,15.50
2022-10-30T10:25:14.440Z,16.20
2022-10-30T10:26:50.642Z,16.63
2022-10-30T10:28:40.493Z,17.10
2022-10-30T10:30:18.211Z,15.93
2022-10-30T10:32:08.165Z,16.60
2022-10-30T10:33:57.747Z,15.40
2022-10-30T10:35:52.871Z,16.00
2022-10-30T10:37:36.464Z,15.43
2022-10-30T10:39:31.901Z,17.03
2022-10-30T10:41:14.783Z,16.10
2022-10-30T10:43:04.977Z,16.67
2022-10-30T10:44:54.524Z,16.33
2022-10-30T10:46:49.709Z,14.90
2022-10-30T10:48:53.871Z,16.47
2022-10-30T10:50:32.186Z,15.63
2022-10-30T10:52:10.523Z,14.73
2022-10-30T10:53:48.599Z,15.77
2022-10-30T10:55:26.033Z,16.20
2022-10-30T10:57:00.506Z,14.93
2022-10-30T10:58:37.417Z,16.30
2022-10-30T11:00:16.938Z,15.07
2022-10-30T11:01:57.328Z,15.00
2022-10-30T11:03:39.521Z,16.07
2022-10-30T11:05:23.966Z,15.30
2022-10-30T11:06:58.231Z,15.43
2022-10-30T11:08:34.858Z,15.40
2022-10-30T11:10:14.485Z,15.37
2022-10-30T11:11:47.743Z,15.83
2022-10-30T11:13:20.767Z,16.57
2022-10-30T11:14:53.819Z,16.40
2022-10-30T11:16:31.541Z,15.60
2022-10-30T11:18:08.795Z,15.90
2022-10-30T11:19:41.814Z,16.50
2022-10-30T11:21:20.653Z,16.90
2022-10-30T11:22:52.679Z,16.30
2022-10-30T11:24:31.632Z,17.17
2022-10-30T11:26:04.724Z,15.73
2022-10-30T11:27:37.770Z,17.43
2022-10-30T11:29:15.107Z,17.43
2022-10-30T11:30:48.180Z,16.77
2022-10-30T11:32:23.475Z,15.70
2022-10-30T11:33:55.572Z,17.20
2022-10-30T11:35:28.655Z,17.70
2022-10-30T11:37:03.538Z,16.53
2022-10-30T11:38:36.583Z,15.83
2022-10-30T11:40:18.674Z,15.83
2022-10-30T11:42:05.053Z,16.50
2022-10-30T11:43:40.114Z,16.17
2022-10-30T11:45:17.285Z,16.80
2022-10-30T11:46:50.496Z,16.53
2022-10-30T11:48:28.598Z,15.57
2022-10-30T11:50:03.799Z,17.23
2022-10-30T11:51:40.221Z,16.07
2022-10-30T11:53:22.538Z,17.60
2022-10-30T11:54:58.123Z,16.30
2022-10-30T11:56:32.789Z,15.70
2022-10-30T11:58:09.846Z,16.30
2022-10-30T11:59:47.121Z,15.97
2022-10-30T12:01:24.120Z,16.80
2022-10-30T12:03:00.965Z,16.40
2022-10-30T12:04:34.474Z,16.27
2022-10-30T12:06:12.673Z,15.83
2022-10-30T12:07:45.672Z,16.97
2022-10-30T12:09:23.906Z,16.57
2022-10-30T12:11:01.252Z,15.83
2022-10-30T12:12:37.891Z,15.70
2022-10-30T12:14:18.935Z,16.20
2022-10-30T12:16:04.638Z,16.27
2022-10-30T12:17:40.479Z,16.40
2022-10-30T12:19:15.854Z,16.47
2022-10-30T12:20:53.415Z,16.13
2022-10-30T12:22:30.934Z,16.47
2022-10-30T12:24:09.428Z,16.03
2022-10-30T12:25:48.572Z,16.63
2022-10-30T12:27:22.587Z,15.07
2022-10-30T12:29:00.359Z,15.77
2022-10-30T12:30:38.626Z,16.47
2022-10-30T12:32:19.108Z,16.17
2022-10-30T12:33:59.759Z,15.70
2022-10-30T12:35:45.344Z,15.97
2022-10-30T12:37:23.299Z,14.90
2022-10-30T12:38:59.803Z,15.20
2022-10-30T12:40:37.760Z,16.60
2022-10-30T12:42:16.578Z,15.23
2022-10-30T12:43:55.902Z,16.13
2022-10-30T12:45:33.940Z,15.60
2022-10-30T12:47:14.738Z,15.87
2022-10-30T12:48:54.488Z,15.70
2022-10-30T12:50:31.043Z,16.70
2022-10-30T12:52:09.830Z,16.77
2022-10-30T12:53:49.646Z,16.30
2022-10-30T12:55:27.624Z,16.53
2022-10-30T12:57:08.396Z,16.33
2022-10-30T12:58:49.136Z,16.57
2022-10-30T13:00:22.355Z,15.93
2022-10-30T13:02:00.653Z,16.20
2022-10-30T13:03:40.267Z,15.83
2022-10-30T13:05:27.443Z,17.17
2022-10-30T13:07:09.703Z,15.83
2022-10-30T13:08:51.167Z,17.13
2022-10-30T13:10:30.931Z,17.47
2022-10-30T13:12:09.241Z,16.57
2022-10-30T13:13:48.540Z,16.63
2022-10-30T13:15:26.020Z,17.33
2022-10-30T13:16:59.137Z,16.50
2022-10-30T13:18:32.991Z,17.13
2022-10-30T13:20:12.363Z,16.77
2022-10-30T13:21:54.024Z,16.47
2022-10-30T13:23:35.006Z,16.73
2022-10-30T13:25:17.873Z,17.30
2022-10-30T13:26:56.742Z,16.80
2022-10-30T13:28:36.414Z,16.90
2022-10-30T13:30:15.751Z,17.30
2022-10-30T13:31:59.092Z,16.80
2022-10-30T13:33:41.147Z,16.97
2022-10-30T13:35:28.180Z,17.17
2022-10-30T13:37:06.844Z,17.03
2022-10-30T13:38:48.422Z,17.57
2022-10-30T13:40:28.597Z,16.67
2022-10-30T13:42:32.271Z,17.20
2022-10-30T13:44:19.604Z,16.40
2022-10-30T13:46:08.767Z,17.07
2022-10-30T13:47:47.702Z,15.93
2022-10-30T13:49:43.811Z,17.53
2022-10-30T13:51:27.531Z,18.10
2022-10-30T13:53:06.236Z,17.17
2022-10-30T13:54:43.085Z,16.93
2022-10-30T13:56:18.891Z,18.07
2022-10-30T13:57:56.919Z,17.37
2022-10-30T13:59:49.501Z,17.47
2022-10-30T14:01:27.786Z,17.33
2022-10-30T14:03:15.514Z,17.80
2022-10-30T14:04:56.470Z,17.10
2022-10-30T14:06:37.686Z,18.60
2022-10-30T14:08:20.347Z,18.37
2022-10-30T14:10:03.494Z,17.83
2022-10-30T14:11:36.567Z,17.23
2022-10-30T14:13:16.861Z,17.97
2022-10-30T14:14:49.949Z,17.90
2022-10-30T14:16:41.537Z,18.77
2022-10-30T14:18:59.811Z,17.57
2022-10-30T14:20:32.856Z,17.43
2022-10-30T14:22:05.897Z,18.47
2022-10-30T14:23:39.545Z,18.33
2022-10-30T14:25:15.782Z,17.93
2022-10-30T14:26:53.029Z,18.53
2022-10-30T14:28:26.531Z,18.17
2022-10-30T14:30:00.172Z,18.43
2022-10-30T14:31:38.321Z,19.57
2022-10-30T14:33:36.395Z,18.33
2022-10-30T14:35:31.311Z,19.00
2022-10-30T14:37:04.402Z,19.93
2022-10-30T14:38:37.466Z,19.97
2022-10-30T14:40:33.489Z,19.57
2022-10-30T14:42:17.036Z,19.20
2022-10-30T14:43:59.542Z,18.53
2022-10-30T14:45:40.177Z,18.67
2022-10-30T14:47:39.046Z,20.40
2022-10-30T14:49:35.374Z,19.83
2022-10-30T14:51:17.676Z,18.73
2022-10-30T14:53:03.855Z,19.07
2022-10-30T14:54:42.501Z,19.93
2022-10-30T14:56:28.292Z,20.03
2022-10-30T14:58:22.422Z,20.73
2022-10-30T15:00:29.334Z,20.33
2022-10-30T15:02:17.145Z,20.43
2022-10-30T15:04:00.111Z,20.90
2022-10-30T15:05:44.900Z,19.83
2022-10-30T15:07:26.464Z,20.40
2022-10-30T15:09:13.545Z,21.47
2022-10-30T15:11:00.305Z,20.80
2022-10-30T15:12:52.515Z,20.03
2022-10-30T15:14:48.732Z,20.87
2022-10-30T15:16:24.893Z,21.00
2022-10-30T15:18:02.354Z,20.77
2022-10-30T15:19:36.818Z,20.97
2022-10-30T15:21:21.255Z,21.13
2022-10-30T15:22:56.820Z,20.93
2022-10-30T15:24:32.585Z,21.03
2022-10-30T15:26:10.091Z,20.37
2022-10-30T15:27:46.242Z,21.63
2022-10-30T15:29:21.872Z,21.77
2022-10-30T15:31:02.532Z,20.83
2022-10-30T15:32:41.397Z,22.50
2022-10-30T15:34:23.593Z,21.17
2022-10-30T15:35:58.112Z,21.13
2022-10-30T15:37:33.229Z,22.17
2022-10-30T15:39:11.006Z,46.13
2022-10-30T15:40:44.311Z,26.73
2022-10-30T15:42:17.820Z,21.57
2022-10-30T15:43:50.969Z,21.70
2022-10-30T15:45:26.628Z,23.27
2022-10-30T15:47:02.163Z,22.83
2022-10-30T15:48:36.385Z,22.93
2022-10-30T15:50:12.782Z,23.20
2022-10-30T15:51:48.439Z,22.03
2022-10-30T15:53:25.530Z,21.43
2022-10-30T15:55:02.358Z,23.30
2022-10-30T15:56:59.884Z,22.83
2022-10-30T15:58:33.819Z,23.03
2022-10-30T16:00:20.152Z,23.27
2022-10-30T16:01:55.466Z,24.40
2022-10-30T16:03:29.474Z,24.33
2022-10-30T16:05:02.529Z,25.87
2022-10-30T16:06:35.547Z,25.43
2022-10-30T16:08:15.922Z,25.63
2022-10-30T16:09:56.014Z,25.97
2022-10-30T16:11:29.114Z,26.10
2022-10-30T16:13:03.351Z,25.63
2022-10-30T16:14:38.237Z,25.83
2022-10-30T16:16:23.338Z,25.53
2022-10-30T16:18:15.573Z,26.07
2022-10-30T16:19:51.729Z,25.73
2022-10-30T16:21:29.527Z,25.97
2022-10-30T16:23:03.692Z,26.23
2022-10-30T16:24:41.335Z,27.23
2022-10-30T16:26:26.763Z,27.50
2022-10-30T16:28:00.064Z,26.87
2022-10-30T16:29:34.988Z,28.30
2022-10-30T16:31:15.248Z,28.13
2022-10-30T16:32:52.375Z,28.70
2022-10-30T16:34:31.636Z,28.93
2022-10-30T16:36:06.518Z,29.60
2022-10-30T16:37:40.957Z,29.80
2022-10-30T16:39:16.463Z,29.97
2022-10-30T16:40:51.246Z,29.40
2022-10-30T16:42:26.549Z,29.30
2022-10-30T16:44:16.763Z,30.37
2022-10-30T16:45:50.854Z,30.80
2022-10-30T16:47:26.437Z,30.20
2022-10-30T16:49:02.387Z,29.87
2022-10-30T16:50:37.325Z,29.80
2022-10-30T16:52:15.546Z,29.27
2022-10-30T16:53:49.517Z,29.00
2022-10-30T16:55:23.712Z,30.70
2022-10-30T16:57:00.278Z,30.90
2022-10-30T16:58:33.479Z,31.53
2022-10-30T17:00:07.818Z,31.43
2022-10-30T17:01:41.308Z,30.87
2022-10-30T17:03:14.853Z,30.97
2022-10-30T17:04:53.824Z,31.27
2022-10-30T17:06:37.584Z,32.50
2022-10-30T17:08:38.286Z,32.67
2022-10-30T17:10:33.263Z,31.67
2022-10-30T17:12:15.620Z,30.67
2022-10-30T17:13:59.392Z,31.73
2022-10-30T17:15:33.508Z,31.97
2022-10-30T17:17:22.442Z,32.33
2022-10-30T17:18:56.974Z,33.47
2022-10-30T17:20:31.371Z,32.63
2022-10-30T17:22:11.094Z,34.60
2022-10-30T17:23:48.769Z,33.63
2022-10-30T17:25:32.040Z,33.70
2022-10-30T17:27:06.930Z,34.27
2022-10-30T17:28:42.007Z,33.63
2022-10-30T17:30:44.904Z,33.53
2022-10-30T17:32:20.843Z,33.37
2022-10-30T17:34:20.976Z,33.57
2022-10-30T17:37:32.047Z,34.13
2022-10-30T17:39:05.581Z,34.33
2022-10-30T17:40:38.682Z,35.07
2022-10-30T17:42:12.246Z,38.97
2022-10-30T17:43:57.558Z,41.83
2022-10-30T17:45:30.638Z,34.37
2022-10-30T17:47:14.624Z,34.23
2022-10-30T17:48:47.662Z,35.00
2022-10-30T17:50:20.791Z,34.63
2022-10-30T17:51:54.017Z,33.87
2022-10-30T17:53:27.534Z,34.67
2022-10-30T17:55:02.211Z,35.60
2022-10-30T17:56:35.635Z,33.77
2022-10-30T17:58:08.734Z,34.80
2022-10-30T17:59:43.935Z,34.00
2022-10-30T18:01:20.432Z,34.87
2022-10-30T18:02:53.556Z,35.33
2022-10-30T18:04:26.569Z,34.07
2022-10-30T18:06:02.282Z,36.23
2022-10-30T18:07:35.342Z,36.10
2022-10-30T18:09:08.437Z,35.37
2022-10-30T18:10:41.571Z,34.70
2022-10-30T18:12:16.630Z,35.73
2022-10-30T18:13:51.077Z,36.70
2022-10-30T18:15:35.631Z,36.60
2022-10-30T18:17:09.878Z,35.23
2022-10-30T18:18:43.130Z,36.10
2022-10-30T18:20:16.431Z,36.43
2022-10-30T18:21:51.705Z,35.23
2022-10-30T18:25:21.862Z,36.10
2022-10-30T18:26:55.757Z,34.60
2022-10-30T18:28:29.066Z,35.50
2022-10-30T18:30:02.469Z,35.67
2022-10-30T18:31:37.563Z,35.37
2022-10-30T18:33:11.614Z,36.57
2022-10-30T18:34:45.043Z,36.13
2022-10-30T18:36:19.767Z,36.10
2022-10-30T18:37:53.205Z,35.23
2022-10-30T18:39:26.588Z,37.03
2022-10-30T18:40:59.982Z,37.40
2022-10-30T18:42:33.297Z,37.73
2022-10-30T18:44:07.103Z,36.60
2022-10-30T18:45:43.721Z,37.90
2022-10-30T18:47:18.487Z,36.07
2022-10-30T18:48:51.813Z,36.43
2022-10-30T18:50:25.910Z,35.37
2022-10-30T18:51:59.296Z,35.13
2022-10-30T18:53:35.209Z,35.37
2022-10-30T18:55:16.730Z,35.57
2022-10-30T18:56:50.065Z,35.13
2022-10-30T18:58:23.429Z,36.37
2022-10-30T18:59:56.736Z,37.30
2022-10-30T19:01:30.579Z,36.07
2022-10-30T19:03:05.892Z,38.10
2022-10-30T19:04:39.232Z,37.63
2022-10-30T19:06:13.032Z,36.90
2022-10-30T19:07:46.374Z,35.80
2022-10-30T19:09:19.746Z,35.77
2022-10-30T19:10:56.665Z,38.57
2022-10-30T19:12:30.162Z,37.77
2022-10-30T19:14:03.636Z,37.80
2022-10-30T19:15:37.755Z,36.37
2022-10-30T19:17:11.077Z,37.40
2022-10-30T19:18:46.313Z,38.63
2022-10-30T19:20:22.201Z,36.73
2022-10-30T19:21:58.205Z,38.07
2022-10-30T19:23:31.580Z,36.50
2022-10-30T19:25:12.560Z,39.13
2022-10-30T19:26:45.892Z,37.60
2022-10-30T19:28:20.005Z,38.63
2022-10-30T19:29:53.343Z,39.13
2022-10-30T19:31:26.666Z,37.47
2022-10-30T19:33:00.008Z,39.00
2022-10-30T19:34:34.722Z,38.70
2022-10-30T19:36:08.217Z,39.10
2022-10-30T19:37:41.936Z,39.53
2022-10-30T19:39:16.887Z,38.73
2022-10-30T19:40:50.482Z,39.03
2022-10-30T19:42:23.802Z,39.10
2022-10-30T19:43:57.161Z,38.83
2022-10-30T19:45:31.446Z,39.13
2022-10-30T19:47:04.820Z,38.50
2022-10-30T19:48:56.865Z,39.13
2022-10-30T19:50:35.027Z,39.90
2022-10-30T19:52:08.358Z,40.10
2022-10-30T19:53:41.932Z,40.90
2022-10-30T19:55:15.422Z,41.17
2022-10-30T19:56:48.769Z,40.20
2022-10-30T19:58:25.154Z,40.67
2022-10-30T19:59:59.486Z,38.33
2022-10-30T20:01:32.993Z,38.97
2022-10-30T20:03:07.462Z,39.67
2022-10-30T20:04:40.805Z,38.30
2022-10-30T20:06:15.564Z,38.80
2022-10-30T20:07:58.526Z,37.67
2022-10-30T20:09:32.553Z,38.47
2022-10-30T20:11:05.946Z,37.00
2022-10-30T20:12:38.331Z,37.53
2022-10-30T20:14:11.757Z,39.17
2022-10-30T20:15:45.111Z,37.03
2022-10-30T20:17:18.455Z,37.73
2022-10-30T20:18:52.016Z,39.20
2022-10-30T20:20:26.185Z,38.23
2022-10-30T20:22:00.905Z,39.63
2022-10-30T20:23:34.302Z,38.73
2022-10-30T20:25:07.827Z,37.90
2022-10-30T20:26:41.989Z,38.47
2022-10-30T20:28:20.140Z,37.87
2022-10-30T20:29:53.504Z,35.47
2022-10-30T20:31:26.820Z,35.17
2022-10-30T20:33:00.644Z,33.50
2022-10-30T20:34:34.222Z,32.47
2022-10-30T20:36:07.731Z,34.13
2022-10-30T20:37:42.603Z,32.67
2022-10-30T20:39:15.949Z,33.00
2022-10-30T20:40:49.995Z,32.60
2022-10-30T20:42:24.433Z,31.90
2022-10-30T20:43:57.830Z,32.10
2022-10-30T20:45:31.314Z,31.80
2022-10-30T20:47:04.647Z,32.43
2022-10-30T20:48:38.344Z,32.50
2022-10-30T20:50:11.902Z,32.60
2022-10-30T20:51:45.234Z,32.00
2022-10-30T20:53:20.165Z,32.20
2022-10-30T20:54:53.566Z,31.87
2022-10-30T20:56:27.044Z,32.27
2022-10-30T20:58:00.673Z,30.57
2022-10-30T20:59:34.244Z,31.20
2022-10-30T21:01:07.775Z,31.60
2022-10-30T21:02:41.311Z,32.50
2022-10-30T21:04:14.784Z,31.87
2022-10-30T21:05:48.286Z,31.43
2022-10-30T21:07:21.623Z,32.47
2022-10-30T21:08:56.319Z,31.87
2022-10-30T21:10:30.704Z,30.67
2022-10-30T21:12:04.156Z,30.23
2022-10-30T21:13:37.833Z,31.67
2022-10-30T21:15:11.462Z,29.37